Time;durP1;ratioP1;P1;durP2;ratioP2;P2;SDS_P1;SDS_P2;PMS_P1;PMS_P2;Temp;Humidity;BMP_temperature;BMP_pressure;BME280_temperature;BME280_humidity;BME280_pressure;Samples;Min_cycle;Max_cycle;Signal;HPM_P1;HPM_P2
2021/05/05 00:01:48;;;;;;;4.03;2.40;;;;;;;;;;5095207;28;20089;-62
2021/05/05 00:04:13;;;;;;;2.92;2.22;;;;;;;;;;5095269;28;20032;-62
2021/05/05 00:06:38;;;;;;;3.90;2.40;;;;;;;;;;5095110;28;20428;-61
2021/05/05 00:09:04;;;;;;;2.80;2.50;;;;;;;;;;5095105;28;20056;-64
2021/05/05 00:11:30;;;;;;;3.35;2.67;;;;;;;;;;5095057;28;20023;-63
2021/05/05 00:13:55;;;;;;;3.20;2.55;;;;;;;;;;5095312;28;20036;-63
2021/05/05 00:16:20;;;;;;;3.25;2.00;;;;;;;;;;5094993;28;20024;-63
2021/05/05 00:18:46;;;;;;;2.58;2.28;;;;;;;;;;5095057;28;20024;-63
2021/05/05 00:21:11;;;;;;;4.20;2.15;;;;;;;;;;5095149;28;20095;-63
2021/05/05 00:23:37;;;;;;;2.75;2.00;;;;;;;;;;5094874;28;20170;-63
2021/05/05 00:26:02;;;;;;;2.50;2.30;;;;;;;;;;5094850;28;20020;-63
2021/05/05 00:28:28;;;;;;;2.38;2.17;;;;;;;;;;5094483;28;20051;-63
2021/05/05 00:30:54;;;;;;;2.55;2.30;;;;;;;;;;5094771;28;20028;-63
2021/05/05 00:33:19;;;;;;;2.78;2.15;;;;;;;;;;5094841;28;20016;-64
2021/05/05 00:35:44;;;;;;;2.65;2.45;;;;;;;;;;5095099;28;20016;-64
2021/05/05 00:38:10;;;;;;;2.20;2.00;;;;;;;;;;5094828;28;20028;-64
2021/05/05 00:40:36;;;;;;;2.15;1.95;;;;;;;;;;5093157;28;20039;-64
2021/05/05 00:43:02;;;;;;;2.53;2.03;;;;;;;;;;5094114;28;20048;-64
2021/05/05 00:45:27;;;;;;;3.22;2.22;;;;;;;;;;5094895;28;20351;-67
2021/05/05 00:47:53;;;;;;;2.88;2.03;;;;;;;;;;5094512;28;20034;-66
2021/05/05 00:50:19;;;;;;;2.30;2.00;;;;;;;;;;5094216;28;20035;-65
2021/05/05 00:52:44;;;;;;;2.45;2.25;;;;;;;;;;5094308;28;20062;-66
2021/05/05 00:55:10;;;;;;;2.08;1.98;;;;;;;;;;5094559;28;20024;-66
2021/05/05 00:57:38;;;;;;;3.03;2.17;;;;;;;;;;5092912;28;20069;-66
2021/05/05 01:00:04;;;;;;;2.38;2.17;;;;;;;;;;5092968;28;20020;-66
2021/05/05 01:02:30;;;;;;;3.00;2.13;;;;;;;;;;5092863;28;20032;-65
2021/05/05 01:04:56;;;;;;;3.75;2.65;;;;;;;;;;5094033;28;20160;-65
2021/05/05 01:07:21;;;;;;;2.90;1.95;;;;;;;;;;5092543;28;20103;-65
2021/05/05 01:09:47;;;;;;;3.10;2.08;;;;;;;;;;5092836;28;20510;-67
2021/05/05 01:12:13;;;;;;;2.03;1.88;;;;;;;;;;5092906;28;20036;-67
2021/05/05 01:14:39;;;;;;;2.78;1.92;;;;;;;;;;5092671;28;20468;-67
2021/05/05 01:17:05;;;;;;;2.50;2.10;;;;;;;;;;5093740;28;20027;-64
2021/05/05 01:19:30;;;;;;;2.15;1.98;;;;;;;;;;5094146;28;20024;-64
2021/05/05 01:21:56;;;;;;;2.80;2.40;;;;;;;;;;5092717;28;20024;-64
2021/05/05 01:24:22;;;;;;;4.97;2.30;;;;;;;;;;5092444;28;20438;-64
2021/05/05 01:26:48;;;;;;;2.05;1.95;;;;;;;;;;5092610;28;20115;-64
2021/05/05 01:29:13;;;;;;;2.50;2.25;;;;;;;;;;5093064;28;20020;-64
2021/05/05 01:31:39;;;;;;;2.65;2.17;;;;;;;;;;5092377;28;20047;-64
2021/05/05 01:34:06;;;;;;;2.40;2.20;;;;;;;;;;5092284;28;20017;-64
2021/05/05 01:36:32;;;;;;;2.92;2.20;;;;;;;;;;5093538;28;20043;-64
2021/05/05 01:38:58;;;;;;;2.60;2.40;;;;;;;;;;5093723;28;20020;-64
2021/05/05 01:41:24;;;;;;;2.20;2.00;;;;;;;;;;5092450;28;20039;-64
2021/05/05 01:43:50;;;;;;;2.45;2.25;;;;;;;;;;5091959;28;20409;-64
2021/05/05 01:46:21;;;;;;;3.30;2.33;;;;;;;;;;5093366;28;20044;-64
2021/05/05 01:48:46;;;;;;;2.90;2.22;;;;;;;;;;5093416;28;20035;-64
2021/05/05 01:51:12;;;;;;;2.50;2.30;;;;;;;;;;5092297;28;20046;-64
2021/05/05 01:53:38;;;;;;;3.90;2.22;;;;;;;;;;5093504;28;20035;-64
2021/05/05 01:56:04;;;;;;;4.75;2.00;;;;;;;;;;5093408;28;20489;-64
2021/05/05 01:58:30;;;;;;;2.60;2.40;;;;;;;;;;5092298;28;20028;-64
2021/05/05 02:00:59;;;;;;;2.45;2.25;;;;;;;;;;5093482;28;20069;-65
2021/05/05 02:03:25;;;;;;;3.33;2.10;;;;;;;;;;5093355;28;20099;-64
2021/05/05 02:05:57;;;;;;;1.90;1.80;;;;;;;;;;5092270;28;20012;-64
2021/05/05 02:08:41;;;;;;;2.20;2.10;;;;;;;;;;5093467;28;20037;-64
2021/05/05 02:11:07;;;;;;;2.58;2.17;;;;;;;;;;5092175;28;20028;-64
2021/05/05 02:13:33;;;;;;;2.17;1.70;;;;;;;;;;5092378;28;20020;-65
2021/05/05 02:15:59;;;;;;;2.08;1.98;;;;;;;;;;5093430;28;20028;-64
2021/05/05 02:18:26;;;;;;;2.97;1.88;;;;;;;;;;5075368;28;20016;-64
2021/05/05 02:20:52;;;;;;;1.77;1.67;;;;;;;;;;5093178;28;20020;-64
2021/05/05 02:23:18;;;;;;;2.67;1.90;;;;;;;;;;5092023;28;20408;-64
2021/05/05 02:25:43;;;;;;;7.53;1.95;;;;;;;;;;5092059;28;20032;-64
2021/05/05 02:28:09;;;;;;;2.13;1.95;;;;;;;;;;5093334;28;20507;-64
2021/05/05 02:30:46;;;;;;;2.00;1.60;;;;;;;;;;5091830;28;20024;-64
2021/05/05 02:33:15;;;;;;;2.33;1.98;;;;;;;;;;5091802;28;20029;-64
2021/05/05 02:35:42;;;;;;;2.78;1.67;;;;;;;;;;5091866;28;20028;-64
2021/05/05 02:38:12;;;;;;;1.88;1.77;;;;;;;;;;5093042;28;20023;-64
2021/05/05 02:40:38;;;;;;;2.38;1.67;;;;;;;;;;5093906;28;20478;-65
2021/05/05 02:43:04;;;;;;;1.75;1.65;;;;;;;;;;5095105;28;20123;-64
2021/05/05 02:45:30;;;;;;;1.60;1.50;;;;;;;;;;5095693;28;20489;-65
2021/05/05 02:47:55;;;;;;;1.65;1.52;;;;;;;;;;5096688;28;20035;-64
2021/05/05 02:50:22;;;;;;;2.63;2.05;;;;;;;;;;5096642;28;20378;-64
2021/05/05 02:52:48;;;;;;;2.83;2.10;;;;;;;;;;5095611;28;20048;-64
2021/05/05 02:55:14;;;;;;;2.53;2.30;;;;;;;;;;5096750;28;20403;-64
2021/05/05 02:57:42;;;;;;;2.45;2.25;;;;;;;;;;5096683;28;20035;-63
2021/05/05 03:00:08;;;;;;;2.97;2.60;;;;;;;;;;5095449;28;20024;-64
2021/05/05 03:02:34;;;;;;;4.28;2.25;;;;;;;;;;5096640;28;20107;-64
2021/05/05 03:04:59;;;;;;;1.98;1.88;;;;;;;;;;5096309;28;20062;-64
2021/05/05 03:07:25;;;;;;;2.10;1.98;;;;;;;;;;5096399;28;20058;-61
2021/05/05 03:09:51;;;;;;;2.25;2.05;;;;;;;;;;5095378;28;20062;-63
2021/05/05 03:12:16;;;;;;;2.38;2.17;;;;;;;;;;5095244;28;20047;-64
2021/05/05 03:14:42;;;;;;;2.20;1.83;;;;;;;;;;5096097;28;20016;-62
2021/05/05 03:17:07;;;;;;;1.98;1.88;;;;;;;;;;5096066;28;20039;-62
2021/05/05 03:19:33;;;;;;;2.10;1.90;;;;;;;;;;5094798;28;20023;-63
2021/05/05 03:21:59;;;;;;;1.95;1.85;;;;;;;;;;5094467;28;20053;-64
2021/05/05 03:24:24;;;;;;;2.85;2.00;;;;;;;;;;5096053;28;20149;-65
2021/05/05 03:26:50;;;;;;;2.58;2.38;;;;;;;;;;5096095;28;20057;-65
2021/05/05 03:29:16;;;;;;;2.20;2.10;;;;;;;;;;5095827;28;20366;-65
2021/05/05 03:31:42;;;;;;;1.85;1.70;;;;;;;;;;5094577;28;20024;-65
2021/05/05 03:34:07;;;;;;;2.72;2.10;;;;;;;;;;5095794;28;20058;-65
2021/05/05 03:36:33;;;;;;;2.17;1.98;;;;;;;;;;5095826;28;20427;-64
2021/05/05 03:39:00;;;;;;;2.55;2.13;;;;;;;;;;5095912;28;20477;-64
2021/05/05 03:41:26;;;;;;;2.40;2.15;;;;;;;;;;5095861;28;20027;-65
2021/05/05 03:43:51;;;;;;;2.83;2.40;;;;;;;;;;5094066;28;20054;-65
2021/05/05 03:46:17;;;;;;;2.38;2.10;;;;;;;;;;5094483;28;20437;-64
2021/05/05 03:48:43;;;;;;;2.92;1.92;;;;;;;;;;5095735;28;20446;-63
2021/05/05 03:51:08;;;;;;;2.10;1.90;;;;;;;;;;5095126;28;20028;-63
2021/05/05 03:53:34;;;;;;;3.42;1.90;;;;;;;;;;5095594;28;20463;-63
2021/05/05 03:55:59;;;;;;;1.92;1.73;;;;;;;;;;5095642;28;20090;-63
2021/05/05 03:58:25;;;;;;;2.38;2.17;;;;;;;;;;5095394;28;20015;-62
2021/05/05 04:00:50;;;;;;;3.08;2.88;;;;;;;;;;5093983;28;20111;-63
2021/05/05 04:03:16;;;;;;;4.32;3.00;;;;;;;;;;5095370;28;20019;-63
2021/05/05 04:05:41;;;;;;;4.60;3.80;;;;;;;;;;5095372;28;20028;-63
2021/05/05 04:08:07;;;;;;;3.58;3.17;;;;;;;;;;5095471;28;20020;-62
2021/05/05 04:10:33;;;;;;;2.97;2.78;;;;;;;;;;5095457;28;20024;-64
2021/05/05 04:12:58;;;;;;;2.92;2.72;;;;;;;;;;5094260;28;20016;-63
2021/05/05 04:15:24;;;;;;;2.67;2.55;;;;;;;;;;5094554;28;20024;-64
2021/05/05 04:17:49;;;;;;;4.88;2.67;;;;;;;;;;5094937;28;20046;-63
2021/05/05 04:20:16;;;;;;;3.80;2.83;;;;;;;;;;5095057;28;20035;-63
2021/05/05 04:22:42;;;;;;;6.43;3.97;;;;;;;;;;5094803;28;20095;-64
2021/05/05 04:25:07;;;;;;;12.65;5.47;;;;;;;;;;5094860;28;20127;-63
2021/05/05 04:27:33;;;;;;;21.17;9.90;;;;;;;;;;5093607;28;20074;-64
2021/05/05 04:29:59;;;;;;;21.13;9.32;;;;;;;;;;5093540;28;20055;-63
2021/05/05 04:32:24;;;;;;;16.80;8.35;;;;;;;;;;5093600;28;20048;-63
2021/05/05 04:34:50;;;;;;;36.33;16.75;;;;;;;;;;5094721;28;20034;-63
2021/05/05 04:37:15;;;;;;;25.73;11.90;;;;;;;;;;5094885;28;20020;-63
2021/05/05 04:39:41;;;;;;;3.75;3.38;;;;;;;;;;5093452;28;20081;-62
2021/05/05 04:42:07;;;;;;;3.58;2.10;;;;;;;;;;5094525;28;20074;-62
2021/05/05 04:44:33;;;;;;;1.95;1.73;;;;;;;;;;5094286;28;20056;-62
2021/05/05 04:46:58;;;;;;;1.75;1.65;;;;;;;;;;5094523;28;20020;-62
2021/05/05 04:49:24;;;;;;;2.10;1.55;;;;;;;;;;5092920;28;20028;-63
2021/05/05 04:51:49;;;;;;;2.65;1.98;;;;;;;;;;5094158;28;20027;-63
2021/05/05 04:54:15;;;;;;;5.15;1.88;;;;;;;;;;5093303;28;20035;-63
2021/05/05 04:56:40;;;;;;;2.58;2.13;;;;;;;;;;5092894;28;20145;-63
2021/05/05 04:59:06;;;;;;;2.28;2.08;;;;;;;;;;5094358;28;20058;-62
2021/05/05 05:01:31;;;;;;;2.50;2.30;;;;;;;;;;5094389;28;20045;-61
2021/05/05 05:03:57;;;;;;;2.75;2.10;;;;;;;;;;5093448;28;20393;-62
2021/05/05 05:06:23;;;;;;;2.60;2.15;;;;;;;;;;5092757;28;20454;-62
2021/05/05 05:08:48;;;;;;;10.60;6.90;;;;;;;;;;5093980;28;20032;-63
2021/05/05 05:11:14;;;;;;;7.63;6.78;;;;;;;;;;5094346;28;20446;-63
2021/05/05 05:13:39;;;;;;;6.43;5.78;;;;;;;;;;5094113;28;20028;-63
2021/05/05 05:16:05;;;;;;;5.90;5.25;;;;;;;;;;5092918;28;20492;-63
2021/05/05 05:18:31;;;;;;;4.40;4.00;;;;;;;;;;5093848;28;20070;-63
2021/05/05 05:20:57;;;;;;;3.05;2.67;;;;;;;;;;5093851;28;20016;-63
2021/05/05 05:23:22;;;;;;;3.20;2.53;;;;;;;;;;5092249;28;20070;-63
2021/05/05 05:25:48;;;;;;;3.90;2.60;;;;;;;;;;5093543;28;20020;-63
2021/05/05 05:28:13;;;;;;;3.03;2.60;;;;;;;;;;5093405;28;20122;-64
2021/05/05 05:30:39;;;;;;;5.28;2.83;;;;;;;;;;5093315;28;20024;-66
2021/05/05 05:33:04;;;;;;;3.97;3.28;;;;;;;;;;5093464;28;20094;-63
2021/05/05 05:35:30;;;;;;;5.88;4.22;;;;;;;;;;5093531;28;20051;-63
2021/05/05 05:37:56;;;;;;;4.05;3.60;;;;;;;;;;5093728;28;20446;-64
2021/05/05 05:40:21;;;;;;;3.20;2.78;;;;;;;;;;5093539;28;20020;-59
2021/05/05 05:42:47;;;;;;;4.70;3.28;;;;;;;;;;5093364;28;20474;-59
2021/05/05 05:45:15;;;;;;;3.65;3.03;;;;;;;;;;5093729;28;20032;-59
2021/05/05 05:47:41;;;;;;;8.25;3.45;;;;;;;;;;5093657;28;20024;-59
2021/05/05 05:50:07;;;;;;;3.05;2.72;;;;;;;;;;5093459;28;20032;-59
2021/05/05 05:52:33;;;;;;;3.35;2.72;;;;;;;;;;5092399;28;20081;-60
2021/05/05 05:54:58;;;;;;;2.70;2.47;;;;;;;;;;5093584;28;20382;-59
2021/05/05 05:57:24;;;;;;;2.60;1.83;;;;;;;;;;5093146;28;20008;-59
2021/05/05 05:59:50;;;;;;;2.13;1.33;;;;;;;;;;5091644;28;20032;-59
2021/05/05 06:02:16;;;;;;;1.92;1.60;;;;;;;;;;5091089;28;20024;-59
2021/05/05 06:04:41;;;;;;;2.75;2.13;;;;;;;;;;5091249;28;20036;-59
2021/05/05 06:07:06;;;;;;;1.92;1.77;;;;;;;;;;5092937;28;20056;-59
2021/05/05 06:09:32;;;;;;;3.05;2.25;;;;;;;;;;5092910;28;20032;-59
2021/05/05 06:11:57;;;;;;;3.28;2.13;;;;;;;;;;5092994;28;20038;-60
2021/05/05 06:14:23;;;;;;;3.13;1.85;;;;;;;;;;5094607;28;20407;-60
2021/05/05 06:16:48;;;;;;;1.15;1.05;;;;;;;;;;5096973;28;20016;-59
2021/05/05 06:19:14;;;;;;;1.95;1.38;;;;;;;;;;5097019;28;20031;-59
2021/05/05 06:21:39;;;;;;;2.22;1.75;;;;;;;;;;5096994;28;20087;-59
2021/05/05 06:24:05;;;;;;;1.65;1.42;;;;;;;;;;5096848;28;20493;-60
2021/05/05 06:26:30;;;;;;;1.73;1.20;;;;;;;;;;5096846;28;20028;-59
2021/05/05 06:28:56;;;;;;;1.38;1.27;;;;;;;;;;5095490;28;20043;-59
2021/05/05 06:31:21;;;;;;;1.98;1.48;;;;;;;;;;5096868;28;20483;-59
2021/05/05 06:33:47;;;;;;;1.23;0.98;;;;;;;;;;5096785;28;20016;-59
2021/05/05 06:36:12;;;;;;;1.42;1.33;;;;;;;;;;5096792;28;20051;-60
2021/05/05 06:38:38;;;;;;;1.30;1.30;;;;;;;;;;5096650;28;20055;-59
2021/05/05 06:41:03;;;;;;;3.65;1.50;;;;;;;;;;5096589;28;20034;-59
2021/05/05 06:43:29;;;;;;;1.65;1.33;;;;;;;;;;5095958;28;20043;-59
2021/05/05 06:45:54;;;;;;;1.73;1.30;;;;;;;;;;5096777;28;20077;-60
2021/05/05 06:48:20;;;;;;;2.92;1.70;;;;;;;;;;5096414;28;20043;-59
2021/05/05 06:50:46;;;;;;;2.00;1.80;;;;;;;;;;5096312;28;20494;-59
2021/05/05 06:53:11;;;;;;;1.70;1.52;;;;;;;;;;5096305;28;20481;-59
2021/05/05 06:55:37;;;;;;;1.52;1.42;;;;;;;;;;5096407;28;20055;-59
2021/05/05 06:58:04;;;;;;;2.13;1.67;;;;;;;;;;5095994;28;20462;-60
2021/05/05 07:00:29;;;;;;;1.13;1.05;;;;;;;;;;5096389;28;20028;-60
2021/05/05 07:02:54;;;;;;;3.22;1.50;;;;;;;;;;5096257;28;20458;-60
2021/05/05 07:05:20;;;;;;;0.77;0.70;;;;;;;;;;5096212;28;20111;-60
2021/05/05 07:07:45;;;;;;;2.25;1.45;;;;;;;;;;5096299;28;20116;-60
2021/05/05 07:10:12;;;;;;;1.95;1.70;;;;;;;;;;5096045;28;20080;-60
2021/05/05 07:12:37;;;;;;;1.42;1.33;;;;;;;;;;5096082;28;20020;-59
2021/05/05 07:15:03;;;;;;;1.50;1.23;;;;;;;;;;5095932;28;20028;-59
2021/05/05 07:17:29;;;;;;;1.65;1.42;;;;;;;;;;5095919;28;20012;-59
2021/05/05 07:19:54;;;;;;;1.67;1.10;;;;;;;;;;5094643;28;20047;-60
2021/05/05 07:22:20;;;;;;;1.58;1.40;;;;;;;;;;5095729;28;20032;-60
2021/05/05 07:24:46;;;;;;;3.60;1.35;;;;;;;;;;5095900;28;20119;-59
2021/05/05 07:27:13;;;;;;;0.82;0.80;;;;;;;;;;5094954;28;20027;-59
2021/05/05 07:29:39;;;;;;;0.95;0.90;;;;;;;;;;5095626;28;20077;-59
2021/05/05 07:32:05;;;;;;;1.27;1.15;;;;;;;;;;5094466;28;20012;-60
2021/05/05 07:34:30;;;;;;;2.70;1.30;;;;;;;;;;5095591;28;20055;-60
2021/05/05 07:37:02;;;;;;;0.95;0.70;;;;;;;;;;5095537;28;20055;-60
2021/05/05 07:40:11;;;;;;;1.58;1.38;;;;;;;;;;5094199;28;20032;-60
2021/05/05 07:48:05;;;;;;;1.73;1.45;;;;;;;;;;5095311;28;20035;-60
2021/05/05 07:50:23;;;;;;;1.40;1.30;;;;;;;;;;5094905;28;20508;-60
2021/05/05 07:52:51;;;;;;;1.80;1.38;;;;;;;;;;5095283;28;20024;-60
2021/05/05 07:55:17;;;;;;;2.30;1.40;;;;;;;;;;5095162;28;20123;-60
2021/05/05 07:57:43;;;;;;;2.35;1.35;;;;;;;;;;5095150;28;20095;-60
2021/05/05 08:00:09;;;;;;;1.50;1.40;;;;;;;;;;5095062;28;20085;-60
2021/05/05 08:02:37;;;;;;;2.25;1.50;;;;;;;;;;5094089;28;20024;-60
2021/05/05 08:05:03;;;;;;;1.98;1.13;;;;;;;;;;5095041;28;20038;-60
2021/05/05 08:07:30;;;;;;;1.23;1.13;;;;;;;;;;5094936;28;20031;-60
2021/05/05 08:09:55;;;;;;;2.55;1.35;;;;;;;;;;5094960;28;20028;-60
2021/05/05 08:12:21;;;;;;;1.67;1.40;;;;;;;;;;5093622;28;20024;-60
2021/05/05 08:14:46;;;;;;;1.35;1.25;;;;;;;;;;5094925;28;20020;-60
2021/05/05 08:17:12;;;;;;;2.17;1.70;;;;;;;;;;5094793;28;20068;-60
2021/05/05 08:19:38;;;;;;;2.38;1.33;;;;;;;;;;5094683;28;20441;-60
2021/05/05 08:22:03;;;;;;;2.05;1.10;;;;;;;;;;5094670;28;20020;-60
2021/05/05 08:24:29;;;;;;;1.00;1.00;;;;;;;;;;5094533;28;20432;-60
2021/05/05 08:26:55;;;;;;;1.90;1.40;;;;;;;;;;5094639;28;20020;-60
2021/05/05 08:29:21;;;;;;;1.38;1.20;;;;;;;;;;5094375;28;20063;-60
2021/05/05 08:31:47;;;;;;;1.45;1.35;;;;;;;;;;5094510;28;20020;-60
2021/05/05 08:34:14;;;;;;;1.40;1.30;;;;;;;;;;5093238;28;20406;-60
2021/05/05 08:36:40;;;;;;;1.30;1.15;;;;;;;;;;5094364;28;20047;-60
2021/05/05 08:39:05;;;;;;;2.83;1.33;;;;;;;;;;5094376;28;20059;-60
2021/05/05 08:41:32;;;;;;;1.40;1.17;;;;;;;;;;5094382;28;20020;-60
2021/05/05 08:43:57;;;;;;;1.20;1.15;;;;;;;;;;5093897;28;20040;-63
2021/05/05 08:46:23;;;;;;;1.25;1.15;;;;;;;;;;5094102;28;20543;-63
2021/05/05 08:48:49;;;;;;;1.92;1.38;;;;;;;;;;5093942;28;20441;-63
2021/05/05 08:51:14;;;;;;;2.05;1.17;;;;;;;;;;5094065;28;20048;-60
2021/05/05 08:53:41;;;;;;;1.48;1.17;;;;;;;;;;5094044;28;20036;-60
2021/05/05 08:56:07;;;;;;;2.13;1.30;;;;;;;;;;5093961;28;20023;-60
2021/05/05 08:58:33;;;;;;;1.20;1.10;;;;;;;;;;5093945;28;20032;-60
2021/05/05 09:00:59;;;;;;;1.60;1.13;;;;;;;;;;5093926;28;20020;-60
2021/05/05 09:03:32;;;;;;;1.35;1.25;;;;;;;;;;5093875;28;20098;-60
2021/05/05 09:05:58;;;;;;;1.40;1.30;;;;;;;;;;5092730;28;20553;-63
2021/05/05 09:08:23;;;;;;;1.50;1.40;;;;;;;;;;5093802;28;20095;-63
2021/05/05 09:10:56;;;;;;;1.60;1.05;;;;;;;;;;5093762;28;20076;-63
2021/05/05 09:13:41;;;;;;;1.58;1.27;;;;;;;;;;5093730;28;20024;-63
2021/05/05 09:16:07;;;;;;;2.33;1.33;;;;;;;;;;5093551;28;20421;-63
2021/05/05 09:18:51;;;;;;;1.20;1.10;;;;;;;;;;5093600;28;20016;-63
2021/05/05 09:21:40;;;;;;;1.38;1.27;;;;;;;;;;5093546;28;20016;-63
2021/05/05 09:24:20;;;;;;;1.83;1.70;;;;;;;;;;5087680;28;20047;-63
2021/05/05 09:26:47;;;;;;;1.45;1.17;;;;;;;;;;5092316;28;20531;-63
2021/05/05 09:29:13;;;;;;;1.48;1.23;;;;;;;;;;5093469;28;20024;-63
2021/05/05 09:31:39;;;;;;;1.40;1.30;;;;;;;;;;5092151;28;20027;-63
2021/05/05 09:34:07;;;;;;;1.48;1.35;;;;;;;;;;5093391;28;20064;-63
2021/05/05 09:36:33;;;;;;;1.30;1.20;;;;;;;;;;5093404;28;20059;-63
2021/05/05 09:39:01;;;;;;;0.85;0.85;;;;;;;;;;5093215;28;20043;-63
2021/05/05 09:41:28;;;;;;;0.95;0.95;;;;;;;;;;5092993;28;20032;-63
2021/05/05 09:43:59;;;;;;;1.35;1.08;;;;;;;;;;5092891;28;20081;-63
2021/05/05 09:46:41;;;;;;;1.92;1.13;;;;;;;;;;5093335;28;20061;-63
2021/05/05 09:49:22;;;;;;;1.30;1.25;;;;;;;;;;5092749;28;20489;-62
2021/05/05 09:51:49;;;;;;;1.27;1.17;;;;;;;;;;5093146;28;20048;-63
2021/05/05 09:54:40;;;;;;;1.67;1.17;;;;;;;;;;5093097;28;20016;-63
2021/05/05 09:57:12;;;;;;;1.52;1.27;;;;;;;;;;5091071;28;20535;-63
2021/05/05 09:59:56;;;;;;;2.35;1.20;;;;;;;;;;5093070;28;20024;-63
2021/05/05 10:02:22;;;;;;;1.83;1.58;;;;;;;;;;5093071;28;20405;-62
2021/05/05 10:05:07;;;;;;;1.75;1.65;;;;;;;;;;5093026;28;20028;-63
2021/05/05 10:07:48;;;;;;;2.10;1.90;;;;;;;;;;5093009;28;20557;-63
2021/05/05 10:10:14;;;;;;;3.40;2.28;;;;;;;;;;5092932;28;20027;-63
2021/05/05 10:12:40;;;;;;;3.40;1.90;;;;;;;;;;5091843;28;20542;-63
2021/05/05 10:15:06;;;;;;;4.85;2.60;;;;;;;;;;5092947;28;20470;-63
2021/05/05 10:17:32;;;;;;;2.55;2.35;;;;;;;;;;5092921;28;20024;-63
2021/05/05 10:19:58;;;;;;;2.80;2.08;;;;;;;;;;5092824;28;20027;-63
2021/05/05 10:22:24;;;;;;;4.78;1.98;;;;;;;;;;5092827;28;20069;-63
2021/05/05 10:24:49;;;;;;;3.83;2.67;;;;;;;;;;5091744;28;20032;-63
2021/05/05 10:27:16;;;;;;;2.55;2.35;;;;;;;;;;5092933;28;20027;-63
2021/05/05 10:29:43;;;;;;;3.95;2.13;;;;;;;;;;5092733;28;20032;-63
2021/05/05 10:32:12;;;;;;;3.35;1.90;;;;;;;;;;5092918;28;20016;-63
2021/05/05 10:34:42;;;;;;;3.20;2.10;;;;;;;;;;5092490;28;20466;-63
2021/05/05 10:37:09;;;;;;;3.85;2.08;;;;;;;;;;5092723;28;20111;-63
2021/05/05 10:39:41;;;;;;;5.57;2.58;;;;;;;;;;5092744;28;20016;-63
2021/05/05 10:42:16;;;;;;;4.22;2.85;;;;;;;;;;5091462;28;20496;-63
2021/05/05 10:44:42;;;;;;;2.85;2.47;;;;;;;;;;5091507;28;20126;-60
2021/05/05 10:47:10;;;;;;;4.38;2.70;;;;;;;;;;5092787;28;20063;-60
2021/05/05 10:49:56;;;;;;;3.92;2.25;;;;;;;;;;5091233;28;20036;-60
2021/05/05 10:52:21;;;;;;;2.20;2.00;;;;;;;;;;5091228;28;20029;-60
2021/05/05 10:54:54;;;;;;;3.03;2.08;;;;;;;;;;5092525;28;20016;-60
2021/05/05 10:57:20;;;;;;;2.30;1.90;;;;;;;;;;5091383;28;20043;-60
2021/05/05 10:59:57;;;;;;;3.50;1.95;;;;;;;;;;5092616;28;20422;-61
2021/05/05 11:02:54;;;;;;;1.48;1.38;;;;;;;;;;5095554;28;20085;-60
2021/05/05 11:05:29;;;;;;;2.38;2.17;;;;;;;;;;5087514;28;20086;-60
2021/05/05 11:07:59;;;;;;;3.00;2.70;;;;;;;;;;5096080;28;20024;-60
2021/05/05 11:10:30;;;;;;;2.22;2.03;;;;;;;;;;5096115;28;20096;-60
2021/05/05 11:12:56;;;;;;;2.50;2.30;;;;;;;;;;5096077;28;20428;-60
2021/05/05 11:15:44;;;;;;;1.75;1.65;;;;;;;;;;5096184;28;20019;-60
2021/05/05 11:18:34;;;;;;;1.98;1.75;;;;;;;;;;5095916;28;20306;-60
2021/05/05 11:21:06;;;;;;;2.55;1.73;;;;;;;;;;5094660;28;20031;-60
2021/05/05 11:23:35;;;;;;;2.20;2.10;;;;;;;;;;5095869;28;20032;-60
2021/05/05 11:26:19;;;;;;;2.90;2.70;;;;;;;;;;5095826;28;20024;-60
2021/05/05 11:28:59;;;;;;;3.45;2.17;;;;;;;;;;5095624;28;20080;-60
2021/05/05 11:31:43;;;;;;;3.40;2.08;;;;;;;;;;5095761;28;20152;-62
2021/05/05 11:34:09;;;;;;;3.22;2.30;;;;;;;;;;5094294;28;20508;-62
2021/05/05 11:36:34;;;;;;;2.72;2.53;;;;;;;;;;5095745;28;20048;-62
2021/05/05 11:39:00;;;;;;;2.30;2.20;;;;;;;;;;5095686;28;20490;-63
2021/05/05 11:41:29;;;;;;;2.60;2.40;;;;;;;;;;5095457;28;20052;-62
2021/05/05 11:43:55;;;;;;;1.83;1.73;;;;;;;;;;5093684;28;20052;-62
2021/05/05 11:46:21;;;;;;;2.05;1.95;;;;;;;;;;5095450;28;20123;-62
2021/05/05 11:48:47;;;;;;;2.13;2.00;;;;;;;;;;5095379;28;20020;-62
2021/05/05 11:51:22;;;;;;;2.17;1.98;;;;;;;;;;5093960;28;20381;-63
2021/05/05 11:53:47;;;;;;;1.75;1.65;;;;;;;;;;5095223;28;20035;-63
2021/05/05 11:56:20;;;;;;;3.33;1.63;;;;;;;;;;5095287;28;20020;-63
2021/05/05 11:58:56;;;;;;;2.00;1.90;;;;;;;;;;5095043;28;20111;-62
2021/05/05 12:01:31;;;;;;;1.83;1.73;;;;;;;;;;5095179;28;20055;-62
2021/05/05 12:04:16;;;;;;;2.60;1.70;;;;;;;;;;5093939;28;20084;-62
2021/05/05 12:06:47;;;;;;;2.03;1.83;;;;;;;;;;5094920;28;20047;-63
2021/05/05 12:09:23;;;;;;;1.95;1.48;;;;;;;;;;5093505;28;20040;-63
2021/05/05 12:11:48;;;;;;;1.60;1.50;;;;;;;;;;5094529;28;20054;-62
2021/05/05 12:14:29;;;;;;;1.63;1.52;;;;;;;;;;5093707;28;20008;-62
2021/05/05 12:16:57;;;;;;;1.98;1.60;;;;;;;;;;5094773;28;20031;-62
2021/05/05 12:19:22;;;;;;;1.50;1.40;;;;;;;;;;5094835;28;20023;-62
2021/05/05 12:21:48;;;;;;;1.85;1.67;;;;;;;;;;5094773;28;20032;-63
2021/05/05 12:24:13;;;;;;;1.63;1.52;;;;;;;;;;5094594;28;20024;-62
2021/05/05 12:26:39;;;;;;;1.58;1.48;;;;;;;;;;5094130;28;20020;-63
2021/05/05 12:29:06;;;;;;;2.08;1.17;;;;;;;;;;5094468;28;20024;-63
2021/05/05 12:31:33;;;;;;;1.27;1.17;;;;;;;;;;5094436;28;20024;-62
2021/05/05 12:33:59;;;;;;;1.10;1.00;;;;;;;;;;5094550;28;20110;-63
2021/05/05 12:36:26;;;;;;;0.80;0.80;;;;;;;;;;5094521;28;20024;-63
2021/05/05 12:38:52;;;;;;;0.70;0.70;;;;;;;;;;5094389;28;20027;-62
2021/05/05 12:41:19;;;;;;;1.33;1.00;;;;;;;;;;5094220;28;20020;-62
2021/05/05 12:43:46;;;;;;;0.77;0.77;;;;;;;;;;5093724;28;20040;-63
2021/05/05 12:46:30;;;;;;;0.60;0.50;;;;;;;;;;5092927;28;20028;-62
2021/05/05 12:48:57;;;;;;;0.60;0.60;;;;;;;;;;5092777;28;20078;-63
2021/05/05 12:51:23;;;;;;;0.40;0.40;;;;;;;;;;5094204;28;20378;-63
2021/05/05 12:53:58;;;;;;;0.77;0.60;;;;;;;;;;5094163;28;20024;-62
2021/05/05 12:56:53;;;;;;;0.80;0.80;;;;;;;;;;5094235;28;20020;-62
2021/05/05 12:59:24;;;;;;;1.58;0.70;;;;;;;;;;5085103;28;20093;-62
2021/05/05 13:02:01;;;;;;;1.25;0.88;;;;;;;;;;5092520;28;20386;-62
2021/05/05 13:04:48;;;;;;;0.75;0.75;;;;;;;;;;5093905;28;20122;-62
2021/05/05 13:07:29;;;;;;;0.60;0.60;;;;;;;;;;5093418;28;20075;-62
2021/05/05 13:10:10;;;;;;;0.70;0.70;;;;;;;;;;5093730;28;20131;-60
2021/05/05 13:32:35;;;;;;;0.70;0.70;;;;;;;;;;5093587;28;20035;-60
2021/05/05 13:35:19;;;;;;;1.17;1.08;;;;;;;;;;5092271;28;20038;-60
2021/05/05 13:38:03;;;;;;;0.90;0.90;;;;;;;;;;5093467;28;20028;-60
2021/05/05 13:40:30;;;;;;;0.70;0.70;;;;;;;;;;5093284;28;20051;-60
2021/05/05 13:43:05;;;;;;;0.90;0.90;;;;;;;;;;5092990;28;20020;-60
2021/05/05 13:45:34;;;;;;;1.05;0.95;;;;;;;;;;5093402;28;20064;-60
2021/05/05 13:50:32;;;;;;;1.20;1.10;;;;;;;;;;5093144;28;20115;-60
2021/05/05 13:52:57;;;;;;;1.67;1.50;;;;;;;;;;5093220;28;20050;-60
2021/05/05 13:55:22;;;;;;;1.50;1.40;;;;;;;;;;5091962;28;20032;-60
2021/05/05 13:57:48;;;;;;;2.03;1.55;;;;;;;;;;5091997;28;20024;-60
2021/05/05 14:00:14;;;;;;;2.05;1.45;;;;;;;;;;5093060;28;20036;-60
2021/05/05 14:02:41;;;;;;;1.38;1.27;;;;;;;;;;5093161;28;20024;-60
2021/05/05 14:05:08;;;;;;;1.40;1.30;;;;;;;;;;5093038;28;20030;-60
2021/05/05 14:07:35;;;;;;;1.50;1.40;;;;;;;;;;5092981;28;20027;-60
2021/05/05 14:10:02;;;;;;;1.48;1.38;;;;;;;;;;5092941;28;20032;-60
2021/05/05 14:12:28;;;;;;;1.88;1.77;;;;;;;;;;5093065;28;20008;-60
2021/05/05 14:14:53;;;;;;;1.70;1.60;;;;;;;;;;5093019;28;20035;-60
2021/05/05 14:17:19;;;;;;;1.77;1.52;;;;;;;;;;5092935;28;20104;-60
2021/05/05 14:19:44;;;;;;;1.98;1.67;;;;;;;;;;5092973;28;20047;-60
2021/05/05 14:22:09;;;;;;;2.25;1.80;;;;;;;;;;5093043;28;20024;-60
2021/05/05 14:24:35;;;;;;;2.25;1.92;;;;;;;;;;5092984;28;20105;-60
2021/05/05 14:27:00;;;;;;;2.83;2.22;;;;;;;;;;5092807;28;20526;-60
2021/05/05 14:29:26;;;;;;;2.40;2.17;;;;;;;;;;5092623;28;20030;-60
2021/05/05 14:31:51;;;;;;;4.38;2.05;;;;;;;;;;5092913;28;20012;-60
2021/05/05 14:34:17;;;;;;;2.55;2.35;;;;;;;;;;5091585;28;20420;-60
2021/05/05 14:36:42;;;;;;;3.42;3.00;;;;;;;;;;5095226;28;20020;-60
2021/05/05 14:39:12;;;;;;;4.53;3.33;;;;;;;;;;5096731;28;20492;-60
2021/05/05 14:41:39;;;;;;;7.37;4.10;;;;;;;;;;5095507;28;20390;-60
2021/05/05 14:44:13;;;;;;;5.05;2.85;;;;;;;;;;5095840;28;20040;-60
2021/05/05 14:49:04;;;;;;;5.43;3.30;;;;;;;;;;5096507;28;20540;-60
2021/05/05 14:51:30;;;;;;;4.05;3.28;;;;;;;;;;5096484;28;20545;-60
2021/05/05 14:53:56;;;;;;;5.78;3.90;;;;;;;;;;5096493;28;20497;-60
2021/05/05 14:56:21;;;;;;;5.25;4.57;;;;;;;;;;5096354;28;20111;-60
2021/05/05 15:01:18;;;;;;;4.70;4.25;;;;;;;;;;5096413;28;20023;-60
2021/05/05 15:03:44;;;;;;;4.43;3.42;;;;;;;;;;5096311;28;20470;-60
2021/05/05 15:06:13;;;;;;;3.97;3.58;;;;;;;;;;5096216;28;20059;-60
2021/05/05 15:08:46;;;;;;;4.97;4.45;;;;;;;;;;5095978;28;20066;-60
2021/05/05 15:33:50;;;;;;;3.42;3.15;;;;;;;;;;5094411;28;20039;-60
2021/05/05 15:35:39;;;;;;;3.88;3.42;;;;;;;;;;5096105;28;20363;-60
2021/05/05 15:40:45;;;;;;;4.28;2.85;;;;;;;;;;5094514;28;20180;-60
2021/05/05 15:45:42;;;;;;;2.17;1.98;;;;;;;;;;5096026;28;20490;-60
2021/05/05 15:48:08;;;;;;;4.65;2.90;;;;;;;;;;5093889;28;20027;-60